Time;durP1;ratioP1;P1;durP2;ratioP2;P2;SDS_P1;SDS_P2;PMS_P1;PMS_P2;Temp;Humidity;BMP_temperature;BMP_pressure;BME280_temperature;BME280_humidity;BME280_pressure;Samples;Min_cycle;Max_cycle;Signal;HPM_P1;HPM_P2
2022/04/29 00:00:06;;;;;;;13.67;11.90;;;;;;;14.43;54.48;95051.06;5072743;28;20967;-74
2022/04/29 00:02:32;;;;;;;13.73;11.47;;;;;;;14.40;54.90;95044.38;5072885;28;20415;-74
2022/04/29 00:04:57;;;;;;;13.57;12.27;;;;;;;14.13;56.21;95051.53;5079923;28;20424;-74
2022/04/29 00:07:22;;;;;;;13.33;11.97;;;;;;;14.71;54.23;95049.97;5070028;28;20450;-74
2022/04/29 00:09:48;;;;;;;12.23;11.03;;;;;;;14.70;54.16;95045.72;5078410;28;20193;-74
2022/04/29 00:12:14;;;;;;;12.07;10.83;;;;;;;14.30;54.79;95045.84;5073328;28;20183;-74
2022/04/29 00:14:39;;;;;;;12.57;11.37;;;;;;;14.38;55.07;95045.59;5073509;28;20186;-74
2022/04/29 00:17:05;;;;;;;11.10;10.03;;;;;;;14.20;55.40;95043.63;5077045;28;20908;-74
2022/04/29 00:19:31;;;;;;;12.00;10.80;;;;;;;14.32;55.41;95049.06;5072718;28;20196;-74
2022/04/29 00:21:57;;;;;;;12.77;11.60;;;;;;;14.31;55.27;95044.84;5075524;28;20180;-74
2022/04/29 00:24:22;;;;;;;12.13;10.83;;;;;;;14.28;54.66;95043.41;5071929;28;20177;-74
2022/04/29 00:26:48;;;;;;;13.23;10.47;;;;;;;14.35;54.93;95046.03;5074506;28;20634;-74
2022/04/29 00:29:14;;;;;;;12.87;11.53;;;;;;;14.44;54.24;95048.22;5073144;28;20201;-74
2022/04/29 00:31:39;;;;;;;11.03;10.00;;;;;;;14.26;55.02;95042.81;5075913;28;20432;-75
2022/04/29 00:34:05;;;;;;;11.00;10.07;;;;;;;14.36;54.96;95042.38;5074041;28;20573;-74
2022/04/29 00:36:31;;;;;;;13.50;10.00;;;;;;;13.97;55.95;95041.47;5073762;28;20188;-74
2022/04/29 00:38:56;;;;;;;12.10;11.00;;;;;;;14.11;55.81;95029.88;5067653;28;21027;-74
2022/04/29 00:41:23;;;;;;;13.20;11.80;;;;;;;14.40;55.31;95035.69;5072633;28;20174;-74
2022/04/29 00:44:03;;;;;;;13.07;11.80;;;;;;;14.18;54.59;95037.78;5075533;28;20174;-75
2022/04/29 00:46:33;;;;;;;13.00;11.60;;;;;;;13.91;55.88;95026.50;5077017;28;20407;-74
2022/04/29 00:48:59;;;;;;;12.23;11.03;;;;;;;14.38;54.98;95027.16;5075147;28;20466;-74
2022/04/29 00:51:24;;;;;;;12.77;11.57;;;;;;;14.04;55.43;95031.75;5067502;28;20936;-75
2022/04/29 00:53:51;;;;;;;10.63;9.50;;;;;;;13.86;55.95;95027.09;5080503;28;20170;-74
2022/04/29 00:56:21;;;;;;;12.80;11.50;;;;;;;14.49;54.51;95021.25;5068042;28;20174;-74
2022/04/29 00:58:52;;;;;;;11.93;10.87;;;;;;;14.06;55.12;95014.72;5074458;28;20438;-75
2022/04/29 01:01:21;;;;;;;11.50;10.30;;;;;;;14.16;54.60;95016.91;5080585;28;20488;-75
2022/04/29 01:03:49;;;;;;;13.93;11.43;;;;;;;14.53;53.48;95022.47;5083880;28;20430;-74
2022/04/29 01:06:15;;;;;;;12.00;10.90;;;;;;;14.80;53.10;95014.47;5070285;28;20991;-74
2022/04/29 01:08:40;;;;;;;12.27;11.07;;;;;;;14.97;52.92;95012.94;5075528;28;20452;-74
2022/04/29 01:11:06;;;;;;;12.93;11.63;;;;;;;14.82;53.33;95015.88;5069119;28;20174;-74
2022/04/29 01:13:32;;;;;;;11.83;10.67;;;;;;;14.94;52.85;95020.47;5073152;28;20261;-74
2022/04/29 01:15:57;;;;;;;14.93;12.00;;;;;;;14.81;53.34;95016.06;5078296;28;20236;-74
2022/04/29 01:18:26;;;;;;;12.60;11.30;;;;;;;14.58;53.71;95012.13;5081943;28;20428;-74
2022/04/29 01:21:04;;;;;;;12.90;11.67;;;;;;;14.71;53.21;95008.63;5069910;28;20157;-74
2022/04/29 01:23:29;;;;;;;11.53;10.37;;;;;;;14.82;52.56;95013.22;5073633;28;20432;-74
2022/04/29 01:25:54;;;;;;;10.20;9.30;;;;;;;14.22;54.65;95015.28;5070796;28;20500;-74
2022/04/29 01:28:21;;;;;;;11.07;10.07;;;;;;;14.33;52.99;95012.00;5065307;28;20206;-74
2022/04/29 01:30:49;;;;;;;10.57;9.47;;;;;;;14.18;54.21;95012.25;5057223;28;20167;-74
2022/04/29 01:33:16;;;;;;;11.23;10.13;;;;;;;13.97;55.37;95008.06;5080063;28;20428;-74
2022/04/29 01:35:41;;;;;;;9.17;6.90;;;;;;;14.01;55.08;95009.25;5064078;28;20421;-74
2022/04/29 01:38:07;;;;;;;12.23;10.80;;;;;;;14.50;53.12;95007.06;5047657;28;20507;-75
2022/04/29 01:40:32;;;;;;;11.20;10.10;;;;;;;13.87;55.58;94999.78;5078066;28;20178;-75
2022/04/29 01:42:58;;;;;;;13.07;11.80;;;;;;;14.40;54.33;95009.34;5069638;28;20181;-75
2022/04/29 01:45:23;;;;;;;11.50;10.40;;;;;;;14.48;53.85;95008.31;5067935;28;20210;-75
2022/04/29 01:47:48;;;;;;;8.57;7.57;;;;;;;13.91;54.65;95001.00;5073184;28;20167;-74
2022/04/29 01:50:14;;;;;;;11.30;10.23;;;;;;;13.70;56.42;95003.84;5067847;28;20187;-75
2022/04/29 01:52:40;;;;;;;12.20;10.20;;;;;;;13.73;56.05;95012.16;5068700;28;20178;-75
2022/04/29 01:55:05;;;;;;;11.90;10.60;;;;;;;13.77;55.79;95013.38;5078510;28;20271;-74
2022/04/29 01:57:31;;;;;;;11.17;9.97;;;;;;;14.04;55.01;95015.94;5071508;28;20189;-75
2022/04/29 01:59:56;;;;;;;10.53;9.40;;;;;;;14.13;55.14;95009.44;5069396;28;20185;-74
2022/04/29 02:02:23;;;;;;;10.90;9.80;;;;;;;14.24;54.79;95008.78;5084079;28;20319;-74
2022/04/29 02:04:48;;;;;;;12.30;10.90;;;;;;;14.40;54.66;95006.72;5080247;28;20218;-75
2022/04/29 02:07:14;;;;;;;11.17;10.07;;;;;;;14.45;53.84;95012.16;5085467;28;20431;-75
2022/04/29 02:09:39;;;;;;;13.30;11.47;;;;;;;14.24;54.62;95011.41;5060095;28;20198;-75
2022/04/29 02:12:06;;;;;;;10.57;9.57;;;;;;;13.67;55.14;95010.34;5062576;28;20173;-75
2022/04/29 02:14:39;;;;;;;10.93;9.93;;;;;;;13.94;55.17;95015.56;5067444;28;20182;-75
2022/04/29 02:17:07;;;;;;;11.23;10.10;;;;;;;13.38;57.36;95009.75;5078838;28;20421;-74
2022/04/29 02:19:34;;;;;;;10.70;9.63;;;;;;;13.39;57.56;95019.28;5087519;28;20427;-74
2022/04/29 02:22:00;;;;;;;10.60;9.50;;;;;;;13.93;56.91;95013.94;5072699;28;20428;-75
2022/04/29 02:24:26;;;;;;;12.80;10.70;;;;;;;13.58;56.55;95017.66;5087611;28;20424;-75
2022/04/29 02:26:53;;;;;;;11.57;10.37;;;;;;;14.03;55.99;95022.22;5072942;28;20431;-74
2022/04/29 02:29:19;;;;;;;11.60;9.77;;;;;;;13.78;56.10;95012.34;5085417;28;20464;-75
2022/04/29 02:31:45;;;;;;;10.50;9.50;;;;;;;13.93;56.45;95019.22;5070513;28;20585;-75
2022/04/29 02:34:11;;;;;;;15.17;11.73;;;;;;;13.97;56.13;95020.41;5073482;28;20432;-75
2022/04/29 02:36:36;;;;;;;6.90;6.20;;;;;;;13.34;58.94;95021.69;5074943;28;20499;-75
2022/04/29 02:39:03;;;;;;;13.90;11.70;;;;;;;13.66;58.24;95029.78;5072875;28;20189;-75
2022/04/29 02:41:29;;;;;;;10.87;9.73;;;;;;;13.69;57.33;95024.09;5067101;28;20183;-75
2022/04/29 02:43:54;;;;;;;12.70;10.40;;;;;;;13.55;57.36;95028.56;5078522;28;20431;-75
2022/04/29 02:46:20;;;;;;;13.03;11.13;;;;;;;13.95;56.43;95014.56;5069639;28;20428;-75
2022/04/29 02:48:48;;;;;;;11.73;10.53;;;;;;;13.66;57.15;95019.25;5075857;28;20214;-74
2022/04/29 02:51:15;;;;;;;11.23;10.13;;;;;;;14.11;55.94;95026.44;5073290;28;20181;-74
2022/04/29 02:53:41;;;;;;;12.07;10.80;;;;;;;13.95;56.36;95020.63;5071187;28;20467;-75
2022/04/29 02:56:07;;;;;;;12.60;11.40;;;;;;;14.37;56.11;95015.03;5084538;28;20463;-75
2022/04/29 02:58:32;;;;;;;12.83;11.50;;;;;;;14.05;56.27;95023.63;5078696;28;20432;-74
2022/04/29 03:00:58;;;;;;;12.53;11.23;;;;;;;14.12;56.45;95020.97;5072879;28;20186;-75
2022/04/29 03:03:23;;;;;;;13.70;12.30;;;;;;;14.34;56.13;95020.69;5085118;28;20580;-74
2022/04/29 03:05:48;;;;;;;11.30;9.93;;;;;;;13.76;58.03;95022.28;5080978;28;20181;-74
2022/04/29 03:08:14;;;;;;;10.97;10.03;;;;;;;13.95;57.65;95027.72;5080300;28;20305;-74
2022/04/29 03:10:39;;;;;;;13.27;12.00;;;;;;;13.92;57.74;95020.22;5070629;28;20182;-74
2022/04/29 03:13:05;;;;;;;13.30;11.93;;;;;;;14.24;56.66;95032.47;5093677;28;20193;-74
2022/04/29 03:15:30;;;;;;;11.83;10.73;;;;;;;14.20;56.47;95025.22;5074551;28;20174;-75
2022/04/29 03:20:43;;;;;;;12.60;11.30;;;;;;;13.93;57.33;95022.66;5069713;28;20180;-74
2022/04/29 03:23:09;;;;;;;12.50;11.23;;;;;;;14.07;57.68;95028.69;5066424;28;20469;-75
2022/04/29 03:25:35;;;;;;;13.47;11.40;;;;;;;14.36;56.46;95023.94;5066503;28;20425;-74
2022/04/29 03:28:02;;;;;;;13.13;10.93;;;;;;;14.52;56.12;95026.09;5072999;28;20456;-74
2022/04/29 03:30:27;;;;;;;13.83;12.43;;;;;;;14.12;56.73;95026.25;5074418;28;20421;-74
2022/04/29 03:32:55;;;;;;;12.57;11.27;;;;;;;13.82;57.81;95034.59;5086029;28;20432;-75
2022/04/29 03:35:21;;;;;;;11.67;10.13;;;;;;;13.67;58.55;95031.38;5055203;28;20183;-75
2022/04/29 03:37:51;;;;;;;10.80;9.80;;;;;;;13.65;59.08;95028.16;5070464;28;20428;-75
2022/04/29 03:40:18;;;;;;;9.57;8.57;;;;;;;13.73;58.85;95024.50;5073940;28;20417;-75
2022/04/29 03:42:43;;;;;;;13.73;12.33;;;;;;;13.87;58.95;95031.38;5053235;28;20662;-74
2022/04/29 03:45:09;;;;;;;10.33;9.30;;;;;;;13.89;58.09;95031.13;5065502;28;20538;-75
2022/04/29 03:47:35;;;;;;;10.50;8.73;;;;;;;13.70;59.20;95038.03;5084691;28;20626;-75
2022/04/29 03:50:01;;;;;;;12.43;10.50;;;;;;;13.75;59.43;95039.06;5065756;28;20206;-74
2022/04/29 03:52:27;;;;;;;13.23;11.07;;;;;;;13.79;58.87;95042.91;5063216;28;20177;-74
2022/04/29 03:54:53;;;;;;;10.80;9.53;;;;;;;13.58;60.04;95037.84;5073650;28;20560;-74
2022/04/29 03:57:18;;;;;;;11.37;10.17;;;;;;;13.38;60.76;95037.88;5076649;28;20177;-75
2022/04/29 03:59:48;;;;;;;10.93;9.37;;;;;;;13.31;60.46;95043.09;5075479;28;20432;-75
2022/04/29 04:02:14;;;;;;;10.63;8.97;;;;;;;13.59;59.86;95045.53;5080684;28;20637;-76
2022/04/29 04:04:39;;;;;;;10.70;9.70;;;;;;;14.04;59.64;95052.78;5064492;28;20421;-74
2022/04/29 04:07:04;;;;;;;11.23;10.13;;;;;;;13.87;59.26;95052.41;5065535;28;20179;-74
2022/04/29 04:09:30;;;;;;;12.43;11.10;;;;;;;14.03;59.42;95054.59;5077715;28;20948;-74
2022/04/29 04:11:56;;;;;;;11.83;9.80;;;;;;;13.48;60.05;95049.56;5066252;28;20194;-75
2022/04/29 04:14:21;;;;;;;12.40;11.10;;;;;;;13.87;59.53;95062.94;5063050;28;20210;-74
2022/04/29 04:16:47;;;;;;;10.80;8.93;;;;;;;13.74;60.12;95063.75;5046501;28;20179;-75
2022/04/29 04:19:13;;;;;;;14.83;11.83;;;;;;;13.90;60.16;95059.06;5076375;28;20174;-74
2022/04/29 04:21:42;;;;;;;12.87;11.37;;;;;;;13.86;59.69;95061.31;5075993;28;20416;-74
2022/04/29 04:24:08;;;;;;;12.23;10.60;;;;;;;13.92;58.39;95060.47;5073558;28;20932;-75
2022/04/29 04:26:35;;;;;;;12.20;10.73;;;;;;;14.37;57.55;95057.97;5058301;28;20440;-75
2022/04/29 04:29:01;;;;;;;12.50;11.30;;;;;;;14.03;58.90;95061.69;5074929;28;20459;-74
2022/04/29 04:31:26;;;;;;;11.63;10.23;;;;;;;14.41;57.53;95061.78;5072428;28;20980;-75
2022/04/29 04:33:52;;;;;;;12.90;11.50;;;;;;;14.59;57.36;95057.72;5075035;28;20416;-75
2022/04/29 04:36:18;;;;;;;11.37;10.17;;;;;;;14.53;57.33;95061.97;5081851;28;20246;-75
2022/04/29 04:38:45;;;;;;;12.83;11.40;;;;;;;14.79;56.51;95060.25;5064244;28;20531;-75
2022/04/29 04:41:13;;;;;;;13.20;11.70;;;;;;;14.52;57.30;95062.19;5064930;28;20432;-75
2022/04/29 04:43:38;;;;;;;13.90;11.43;;;;;;;14.84;56.31;95057.81;5068518;28;20800;-75
2022/04/29 04:46:06;;;;;;;11.83;10.63;;;;;;;14.27;58.27;95059.44;5065516;28;20432;-75
2022/04/29 04:48:31;;;;;;;13.50;11.53;;;;;;;14.54;57.44;95065.41;5083855;28;20197;-75
2022/04/29 04:51:01;;;;;;;14.53;12.03;;;;;;;14.72;56.75;95054.22;5072606;28;20429;-74
2022/04/29 04:53:27;;;;;;;13.30;11.90;;;;;;;14.22;59.18;95063.47;5070091;28;20197;-75
2022/04/29 04:55:53;;;;;;;7.93;6.73;;;;;;;13.59;61.50;95055.25;5081874;28;20463;-75
2022/04/29 04:58:18;;;;;;;17.73;13.50;;;;;;;13.96;60.94;95066.16;5084046;28;20189;-75
2022/04/29 05:00:44;;;;;;;18.87;15.80;;;;;;;14.33;59.35;95056.75;5071057;28;20256;-74
2022/04/29 05:03:09;;;;;;;16.07;13.80;;;;;;;14.09;60.80;95063.50;5077486;28;20185;-75
2022/04/29 05:05:35;;;;;;;15.80;13.47;;;;;;;13.74;61.95;95063.75;5079519;28;20181;-74
2022/04/29 05:08:01;;;;;;;16.70;13.27;;;;;;;13.70;62.30;95062.53;5070152;28;20431;-75
2022/04/29 05:10:27;;;;;;;15.50;13.20;;;;;;;13.96;61.05;95059.09;5065492;28;20181;-75
2022/04/29 05:12:52;;;;;;;19.20;14.73;;;;;;;13.97;61.17;95060.69;5079472;28;20180;-74
2022/04/29 05:15:18;;;;;;;14.87;13.23;;;;;;;14.13;59.51;95061.25;5071242;28;20420;-75
2022/04/29 05:17:43;;;;;;;10.10;8.57;;;;;;;14.01;61.18;95051.38;5066880;28;20243;-74
2022/04/29 05:20:15;;;;;;;15.37;13.43;;;;;;;14.61;58.84;95048.59;5054345;28;20230;-75
2022/04/29 05:22:41;;;;;;;14.07;12.40;;;;;;;14.79;58.78;95055.00;5077497;28;20196;-74
2022/04/29 05:25:07;;;;;;;16.23;13.30;;;;;;;15.14;57.62;95054.59;5075079;28;20417;-75
2022/04/29 05:27:33;;;;;;;16.90;13.57;;;;;;;15.06;57.01;95060.13;5065760;28;20174;-74
2022/04/29 05:29:58;;;;;;;18.53;14.50;;;;;;;14.98;57.68;95059.34;5080658;28;20534;-74
2022/04/29 05:32:29;;;;;;;20.13;14.53;;;;;;;14.73;58.46;95061.09;5073403;28;20659;-74
2022/04/29 05:34:55;;;;;;;12.13;9.23;;;;;;;14.15;59.70;95059.22;5080484;28;20173;-75
2022/04/29 05:37:21;;;;;;;22.30;14.80;;;;;;;14.43;59.33;95058.94;5078543;28;20420;-74
2022/04/29 05:42:30;;;;;;;35.17;15.47;;;;;;;14.48;59.80;95059.16;5074192;28;20188;-75
2022/04/29 05:44:56;;;;;;;26.67;14.80;;;;;;;14.32;60.50;95055.13;5080068;28;20894;-74
2022/04/29 05:47:22;;;;;;;67.13;21.13;;;;;;;14.77;59.11;95057.84;5072529;28;20206;-74
2022/04/29 05:49:47;;;;;;;16.13;14.40;;;;;;;14.99;57.86;95060.97;5083357;28;20189;-74
2022/04/29 05:52:13;;;;;;;114.33;27.60;;;;;;;14.94;57.91;95063.44;5080326;28;20177;-75
2022/04/29 05:54:38;;;;;;;15.87;12.30;;;;;;;13.96;61.71;95056.44;5076724;28;20230;-74
2022/04/29 05:57:05;;;;;;;20.73;14.50;;;;;;;13.76;61.69;95059.09;5083824;28;20617;-74
2022/04/29 05:59:30;;;;;;;12.77;9.47;;;;;;;13.65;62.73;95067.59;5081301;28;20174;-75
2022/04/29 06:01:57;;;;;;;30.43;15.47;;;;;;;14.63;60.15;95072.91;5085276;28;20432;-74
2022/04/29 06:04:22;;;;;;;18.10;14.60;;;;;;;14.52;60.12;95076.16;5065565;28;20424;-74
2022/04/29 06:06:48;;;;;;;15.03;11.47;;;;;;;14.76;58.84;95081.75;5081008;28;20451;-75
2022/04/29 06:09:14;;;;;;;15.17;12.67;;;;;;;14.15;60.72;95075.84;5063270;28;20205;-75
2022/04/29 06:11:39;;;;;;;13.10;11.20;;;;;;;13.76;62.59;95090.66;5085491;28;20451;-75
2022/04/29 06:14:05;;;;;;;16.00;13.50;;;;;;;14.75;59.91;95086.22;5065704;28;20186;-74
2022/04/29 06:16:31;;;;;;;18.33;14.57;;;;;;;14.92;58.94;95081.28;5080143;28;20174;-74
2022/04/29 06:18:56;;;;;;;18.73;14.43;;;;;;;15.03;58.55;95085.88;5067300;28;20673;-74
2022/04/29 06:21:21;;;;;;;15.60;12.80;;;;;;;14.47;60.27;95083.84;5075535;28;20251;-74
2022/04/29 06:23:48;;;;;;;18.53;14.13;;;;;;;14.71;58.93;95084.22;5076452;28;20187;-74
2022/04/29 06:26:14;;;;;;;13.57;12.17;;;;;;;15.23;57.77;95087.59;5068299;28;20179;-74
2022/04/29 06:28:40;;;;;;;13.73;12.33;;;;;;;15.80;56.16;95079.72;5076892;28;20453;-74
2022/04/29 06:31:06;;;;;;;15.70;13.90;;;;;;;15.54;56.57;95081.53;5066244;28;20421;-75
2022/04/29 06:33:33;;;;;;;12.97;11.60;;;;;;;15.37;55.86;95086.50;5079030;28;20177;-75
2022/04/29 06:35:59;;;;;;;14.40;13.00;;;;;;;16.19;54.87;95080.38;5063478;28;20493;-75
2022/04/29 06:38:25;;;;;;;14.57;13.03;;;;;;;16.35;53.95;95076.34;5086832;28;20432;-74
2022/04/29 06:40:50;;;;;;;14.60;12.57;;;;;;;15.99;54.65;95076.13;5072991;28;20421;-74
2022/04/29 06:43:19;;;;;;;10.50;9.47;;;;;;;15.62;55.66;95081.25;5082069;28;20183;-74
2022/04/29 06:45:44;;;;;;;16.57;12.63;;;;;;;16.15;54.97;95087.13;5067098;28;20175;-74
2022/04/29 06:48:10;;;;;;;13.60;12.17;;;;;;;16.62;53.10;95079.53;5085558;28;20459;-74
2022/04/29 06:50:35;;;;;;;12.57;11.03;;;;;;;17.29;51.79;95084.81;5079514;28;20170;-74
2022/04/29 06:53:01;;;;;;;14.20;11.37;;;;;;;16.92;51.58;95076.97;5072065;28;20197;-75
2022/04/29 06:55:27;;;;;;;14.53;13.03;;;;;;;17.24;51.58;95076.72;5081488;28;20218;-75
2022/04/29 06:57:52;;;;;;;13.30;12.00;;;;;;;17.37;51.28;95073.09;5075352;28;20178;-74
2022/04/29 07:00:21;;;;;;;15.77;13.07;;;;;;;17.96;49.27;95078.50;5060513;28;20444;-76
2022/04/29 07:02:47;;;;;;;15.40;13.23;;;;;;;17.72;50.08;95072.38;5084995;28;20231;-75
2022/04/29 07:05:13;;;;;;;14.63;13.13;;;;;;;17.12;50.93;95073.25;5068905;28;20420;-75
2022/04/29 07:07:39;;;;;;;14.20;11.70;;;;;;;17.13;51.27;95070.38;5067401;28;20175;-75
2022/04/29 07:10:05;;;;;;;18.90;11.87;;;;;;;16.67;52.05;95071.72;5075718;28;20461;-74
2022/04/29 07:12:34;;;;;;;13.30;11.90;;;;;;;17.44;49.78;95070.34;5067976;28;20180;-75
2022/04/29 07:15:00;;;;;;;13.77;10.90;;;;;;;17.94;48.12;95067.34;5076657;28;20424;-75
2022/04/29 07:17:26;;;;;;;12.10;10.90;;;;;;;18.24;47.24;95077.03;5063870;28;20459;-74
2022/04/29 07:19:52;;;;;;;12.97;11.63;;;;;;;18.03;47.38;95065.97;5069111;28;20416;-74
2022/04/29 07:22:18;;;;;;;12.97;11.60;;;;;;;17.46;49.51;95066.44;5061462;28;21300;-74
2022/04/29 07:24:44;;;;;;;11.70;10.50;;;;;;;18.19;47.23;95068.94;5067606;28;20485;-75
2022/04/29 07:27:09;;;;;;;10.77;8.67;;;;;;;17.42;49.36;95056.56;5085608;28;20958;-75
2022/04/29 07:29:35;;;;;;;14.33;11.50;;;;;;;17.81;49.53;95059.59;5078716;28;20202;-74
2022/04/29 07:32:00;;;;;;;13.53;10.60;;;;;;;17.98;48.47;95065.84;5061057;28;20195;-74
2022/04/29 07:41:44;;;;;;;11.80;10.60;;;;;;;19.04;45.61;95056.94;5077186;28;20234;-74
2022/04/29 07:42:39;;;;;;;11.03;9.53;;;;;;;18.54;45.68;95059.13;5078239;28;20458;-74
2022/04/29 07:45:05;;;;;;;11.00;9.60;;;;;;;18.68;45.95;95057.00;5077100;28;20424;-75
2022/04/29 07:47:30;;;;;;;11.93;10.80;;;;;;;18.74;45.08;95057.91;5060219;28;20178;-75
2022/04/29 07:49:56;;;;;;;12.00;10.80;;;;;;;18.97;44.99;95061.56;5070366;28;20614;-75
2022/04/29 07:52:22;;;;;;;12.53;11.23;;;;;;;18.56;45.94;95060.75;5079992;28;20174;-75
2022/04/29 07:54:48;;;;;;;11.07;10.07;;;;;;;18.52;45.19;95058.56;5073752;28;20242;-75
2022/04/29 07:57:13;;;;;;;9.83;8.83;;;;;;;17.30;47.39;95064.44;5067249;28;20444;-75
2022/04/29 07:59:38;;;;;;;8.40;7.60;;;;;;;17.83;45.64;95053.06;5075265;28;20209;-74
2022/04/29 08:02:04;;;;;;;9.17;8.27;;;;;;;17.70;46.17;95053.25;5078661;28;20198;-74
2022/04/29 08:04:30;;;;;;;9.90;8.90;;;;;;;17.79;44.95;95057.16;5064807;28;20197;-75
2022/04/29 08:06:55;;;;;;;10.20;9.20;;;;;;;17.81;45.83;95062.22;5047587;28;20178;-74
2022/04/29 08:09:21;;;;;;;12.10;9.00;;;;;;;19.01;43.98;95054.72;5066810;28;20272;-75
2022/04/29 08:11:46;;;;;;;10.50;8.93;;;;;;;18.68;44.08;95048.25;5069763;28;20174;-75
2022/04/29 08:14:12;;;;;;;8.90;8.10;;;;;;;18.08;43.83;95050.19;5046803;28;20281;-74
2022/04/29 08:16:38;;;;;;;8.67;7.93;;;;;;;17.97;44.78;95050.19;5077035;28;20178;-75
2022/04/29 08:19:03;;;;;;;10.43;9.40;;;;;;;18.42;43.79;95054.88;5092200;28;20517;-75
2022/04/29 08:21:29;;;;;;;11.20;10.20;;;;;;;18.12;45.02;95054.00;5071343;28;20229;-74
2022/04/29 08:23:54;;;;;;;9.73;8.63;;;;;;;17.37;46.29;95038.69;5064570;28;20182;-75
2022/04/29 08:26:20;;;;;;;10.53;9.50;;;;;;;16.83;47.75;95043.09;5073924;28;20653;-75
2022/04/29 08:28:45;;;;;;;9.40;8.57;;;;;;;17.49;45.63;95049.28;5056291;28;20193;-74
2022/04/29 08:31:11;;;;;;;9.60;8.70;;;;;;;17.00;46.70;95049.41;5079044;28;20186;-74
2022/04/29 08:33:36;;;;;;;11.13;9.90;;;;;;;17.38;45.53;95053.56;5082591;28;20227;-74
2022/04/29 08:36:03;;;;;;;10.60;9.60;;;;;;;17.99;44.26;95059.53;5063117;28;20182;-74
2022/04/29 08:38:28;;;;;;;9.67;8.80;;;;;;;17.87;44.08;95053.41;5075347;28;20185;-74
2022/04/29 08:41:03;;;;;;;11.03;8.70;;;;;;;17.53;44.47;95045.97;5059750;28;20420;-74
2022/04/29 08:43:31;;;;;;;6.73;6.00;;;;;;;17.46;44.05;95036.53;5069604;28;20169;-74
2022/04/29 08:45:58;;;;;;;8.00;7.30;;;;;;;18.09;43.26;95048.34;5055427;28;20435;-75
2022/04/29 08:48:23;;;;;;;8.57;7.50;;;;;;;17.92;44.06;95042.94;5074863;28;20546;-74
2022/04/29 08:50:49;;;;;;;7.33;6.63;;;;;;;18.41;42.31;95037.38;5049983;28;20410;-74
2022/04/29 08:53:17;;;;;;;8.43;7.63;;;;;;;17.98;43.82;95043.84;5068141;28;20193;-74
2022/04/29 08:58:38;;;;;;;7.40;6.70;;;;;;;18.18;42.38;95035.56;5075725;28;20420;-75
2022/04/29 09:01:13;;;;;;;8.70;6.77;;;;;;;18.49;41.87;95029.84;5059875;28;20530;-74
2022/04/29 09:03:42;;;;;;;7.37;6.73;;;;;;;18.43;41.69;95025.50;5069989;28;20459;-74
2022/04/29 09:06:07;;;;;;;8.60;7.83;;;;;;;18.77;41.11;95008.94;5079584;28;20430;-74
2022/04/29 09:08:41;;;;;;;10.53;8.43;;;;;;;18.51;41.86;95017.16;5074970;28;20452;-74
2022/04/29 09:11:07;;;;;;;8.30;7.60;;;;;;;19.52;40.15;95015.84;5072309;28;20421;-74
2022/04/29 09:13:37;;;;;;;7.77;7.07;;;;;;;18.50;41.87;95020.88;5045378;28;20406;-74
2022/04/29 09:16:05;;;;;;;8.33;7.57;;;;;;;18.52;41.73;95018.78;5079733;28;21147;-75
2022/04/29 09:18:43;;;;;;;8.67;7.87;;;;;;;18.99;40.99;95025.81;5061720;28;21037;-74
2022/04/29 09:21:16;;;;;;;8.00;7.30;;;;;;;19.88;39.41;95024.38;5075223;28;20419;-75
2022/04/29 09:23:56;;;;;;;8.30;7.60;;;;;;;19.01;40.66;95020.25;5065969;28;20510;-74
2022/04/29 09:26:30;;;;;;;10.00;8.27;;;;;;;19.30;40.56;95016.53;5075966;28;20427;-74
2022/04/29 09:29:08;;;;;;;8.90;8.20;;;;;;;19.40;39.98;95018.56;5074346;28;20447;-74
2022/04/29 09:31:53;;;;;;;8.13;7.23;;;;;;;20.58;37.76;95014.13;5069451;28;20439;-74
2022/04/29 09:34:18;;;;;;;8.30;7.40;;;;;;;19.77;39.02;95015.47;5072451;28;20432;-74
2022/04/29 09:36:44;;;;;;;8.50;7.70;;;;;;;19.92;38.42;95012.22;5069463;28;20466;-74
2022/04/29 09:39:30;;;;;;;8.43;7.73;;;;;;;20.79;36.71;95007.22;5073951;28;20197;-75
2022/04/29 09:42:04;;;;;;;8.70;7.90;;;;;;;20.56;37.30;95006.41;5056226;28;20606;-75
2022/04/29 09:44:35;;;;;;;8.13;7.33;;;;;;;19.75;38.54;95014.06;5074401;28;20419;-74
2022/04/29 09:47:22;;;;;;;9.13;8.30;;;;;;;19.03;39.51;95018.19;5058690;28;20420;-74
2022/04/29 09:50:05;;;;;;;15.70;7.97;;;;;;;19.24;39.10;95016.69;5067689;28;20900;-74
2022/04/29 09:52:30;;;;;;;6.60;6.10;;;;;;;19.16;39.20;95009.09;5079802;28;20420;-75
2022/04/29 09:55:14;;;;;;;6.40;5.90;;;;;;;19.03;38.97;95011.03;5080154;28;20460;-74
2022/04/29 09:58:09;;;;;;;7.57;6.83;;;;;;;18.22;40.26;95016.31;5075141;28;20185;-74
2022/04/29 10:00:35;;;;;;;8.30;7.53;;;;;;;18.70;39.63;95014.34;5046095;28;20417;-76
2022/04/29 10:03:03;;;;;;;17.67;7.27;;;;;;;18.77;39.60;95007.06;5084381;28;20427;-75
2022/04/29 10:05:31;;;;;;;6.67;6.17;;;;;;;19.25;38.79;95003.16;5082212;28;20657;-74
2022/04/29 10:07:57;;;;;;;7.43;6.73;;;;;;;19.81;37.52;95005.16;5086329;28;20455;-74
2022/04/29 10:10:27;;;;;;;8.47;6.70;;;;;;;19.13;38.42;94999.78;5085624;28;20571;-75
2022/04/29 10:12:53;;;;;;;12.30;6.67;;;;;;;20.24;36.69;95000.94;5087062;28;21011;-75
2022/04/29 10:15:21;;;;;;;10.30;7.10;;;;;;;19.97;36.94;94990.22;5072464;28;20421;-75
2022/04/29 10:23:24;;;;;;;6.83;6.23;;;;;;;20.37;35.87;94984.63;5073572;28;20414;-74
2022/04/29 10:25:50;;;;;;;22.43;8.80;;;;;;;19.72;37.35;94982.69;5075800;28;20413;-75
2022/04/29 10:28:26;;;;;;;14.63;8.70;;;;;;;20.02;36.75;94980.47;5065649;28;20941;-74
2022/04/29 10:31:05;;;;;;;7.20;6.60;;;;;;;21.08;35.10;94983.84;5082844;28;20170;-74
2022/04/29 10:33:30;;;;;;;55.93;12.27;;;;;;;20.81;35.96;94983.84;5056747;28;20427;-74
2022/04/29 10:36:04;;;;;;;23.77;8.43;;;;;;;20.81;34.96;94984.66;5072481;28;20443;-74
2022/04/29 10:38:31;;;;;;;7.20;6.60;;;;;;;21.22;34.62;94978.91;5072653;28;20182;-74
2022/04/29 10:41:14;;;;;;;24.73;9.43;;;;;;;20.90;35.49;94979.69;5072240;28;20427;-74
2022/04/29 10:44:00;;;;;;;8.60;7.00;;;;;;;20.59;36.23;94976.66;5066891;28;21033;-74
2022/04/29 10:46:39;;;;;;;35.13;10.53;;;;;;;20.27;37.21;94972.03;5071913;28;20538;-75
2022/04/29 10:49:21;;;;;;;28.83;10.70;;;;;;;20.38;37.32;94978.28;5075353;28;20550;-75
2022/04/29 10:52:00;;;;;;;13.73;9.23;;;;;;;21.10;35.66;94975.63;5069860;28;20427;-74
2022/04/29 10:54:34;;;;;;;8.40;7.60;;;;;;;20.64;36.26;94962.63;5071252;28;20464;-75
2022/04/29 10:57:06;;;;;;;10.90;8.80;;;;;;;20.32;36.56;94968.66;5080416;28;20429;-75
2022/04/29 10:59:51;;;;;;;51.77;16.53;;;;;;;20.66;36.03;94968.53;5077824;28;20404;-74
2022/04/29 11:02:24;;;;;;;13.33;9.30;;;;;;;20.22;36.84;94966.66;5078271;28;20428;-74
2022/04/29 11:04:50;;;;;;;26.17;9.37;;;;;;;21.65;34.27;94963.84;5068166;28;20424;-74
2022/04/29 11:07:36;;;;;;;16.70;8.43;;;;;;;22.17;33.60;94946.28;5074316;28;20953;-74
2022/04/29 11:10:12;;;;;;;19.33;11.03;;;;;;;22.87;32.65;94943.34;5083772;28;20483;-74
2022/04/29 11:12:40;;;;;;;19.03;8.63;;;;;;;22.25;33.76;94945.81;5082976;28;20420;-74
2022/04/29 11:15:12;;;;;;;13.83;8.60;;;;;;;21.33;35.99;94946.00;5066572;28;20420;-74
2022/04/29 11:17:38;;;;;;;11.90;8.33;;;;;;;21.21;36.57;94946.19;5058460;28;20436;-74
2022/04/29 11:20:25;;;;;;;8.20;7.40;;;;;;;20.09;37.75;94935.94;5061277;28;20454;-74
2022/04/29 11:25:52;;;;;;;9.53;7.90;;;;;;;21.71;35.05;94943.38;5076343;28;20403;-74
2022/04/29 11:28:19;;;;;;;9.13;8.43;;;;;;;21.10;35.44;94933.84;5071221;28;20444;-75
2022/04/29 11:30:46;;;;;;;27.70;10.13;;;;;;;20.00;37.50;94937.41;5066089;28;20413;-74
2022/04/29 11:33:12;;;;;;;9.80;7.07;;;;;;;20.72;35.76;94927.63;5066660;28;20480;-74
2022/04/29 11:35:38;;;;;;;7.93;7.00;;;;;;;19.89;37.17;94919.75;5078301;28;20417;-74
2022/04/29 11:38:04;;;;;;;15.53;9.27;;;;;;;20.23;37.08;94932.91;5072783;28;20446;-75
2022/04/29 11:40:29;;;;;;;8.10;7.40;;;;;;;19.56;38.05;94931.19;5065549;28;20413;-74
2022/04/29 11:42:55;;;;;;;15.43;8.97;;;;;;;20.69;36.57;94922.81;5079623;28;20169;-75
2022/04/29 11:45:23;;;;;;;8.63;7.53;;;;;;;20.66;35.73;94918.81;5089976;28;20211;-74